createdAt,value
2019-02-20T00:02:05.740Z,6.17
2019-02-20T00:04:34.145Z,6.11
2019-02-20T00:07:02.574Z,6.06
2019-02-20T00:09:31.022Z,6.06
2019-02-20T00:11:59.460Z,5.99
2019-02-20T00:14:27.888Z,5.96
2019-02-20T00:16:56.482Z,5.94
2019-02-20T00:19:24.930Z,5.94
2019-02-20T00:21:53.349Z,6.11
2019-02-20T00:24:21.802Z,6.14
2019-02-20T00:26:50.233Z,6.02
2019-02-20T00:29:18.685Z,6.02
2019-02-20T00:31:47.124Z,6.01
2019-02-20T00:34:15.547Z,6.01
2019-02-20T00:36:43.967Z,6.02
2019-02-20T00:39:12.486Z,6.04
2019-02-20T00:41:40.975Z,6.04
2019-02-20T00:44:11.132Z,6.08
2019-02-20T00:46:41.196Z,6.20
2019-02-20T00:49:13.939Z,6.20
2019-02-20T00:51:43.999Z,6.14
2019-02-20T00:54:12.446Z,6.14
2019-02-20T00:56:40.874Z,6.32
2019-02-20T00:59:09.324Z,6.32
2019-02-20T01:01:37.747Z,6.29
2019-02-20T01:04:06.365Z,6.29
2019-02-20T01:06:34.783Z,6.33
2019-02-20T01:09:03.233Z,6.22
2019-02-20T01:11:31.652Z,6.22
2019-02-20T01:14:00.110Z,6.33
2019-02-20T01:16:28.531Z,6.34
2019-02-20T01:18:56.975Z,6.34
2019-02-20T01:21:25.396Z,6.40
2019-02-20T01:23:53.822Z,6.48
2019-02-20T01:26:22.329Z,6.28
2019-02-20T01:28:50.748Z,6.28
2019-02-20T01:31:19.189Z,6.21
2019-02-20T01:33:47.622Z,6.21
2019-02-20T01:36:16.070Z,6.24
2019-02-20T01:38:44.493Z,6.27
2019-02-20T01:41:12.943Z,6.27
2019-02-20T01:43:41.361Z,6.27
2019-02-20T01:46:09.819Z,6.21
2019-02-20T01:48:38.239Z,6.22
2019-02-20T01:51:06.688Z,6.26
2019-02-20T01:53:35.106Z,6.26
2019-02-20T01:56:03.566Z,6.28
2019-02-20T01:58:31.982Z,6.29
2019-02-20T02:01:02.461Z,6.30
2019-02-20T02:03:30.882Z,6.28
2019-02-20T02:05:59.329Z,6.25
2019-02-20T02:08:27.752Z,6.20
2019-02-20T02:10:56.199Z,6.26
2019-02-20T02:13:24.624Z,6.30
2019-02-20T02:15:53.075Z,6.30
2019-02-20T02:18:21.502Z,6.24
2019-02-20T02:20:49.954Z,6.24
2019-02-20T02:23:20.080Z,6.15
2019-02-20T02:25:48.707Z,6.14
2019-02-20T02:28:17.131Z,6.17
2019-02-20T02:30:45.586Z,6.15
2019-02-20T02:33:14.014Z,6.15
2019-02-20T02:35:42.465Z,6.13
2019-02-20T02:38:10.897Z,6.13
2019-02-20T02:40:39.352Z,6.03
2019-02-20T02:43:07.751Z,6.04
2019-02-20T02:45:36.212Z,6.12
2019-02-20T02:48:04.638Z,6.21
2019-02-20T02:50:33.098Z,6.17
2019-02-20T02:53:01.521Z,6.18
2019-02-20T02:55:29.981Z,6.13
2019-02-20T02:57:58.400Z,6.04
2019-02-20T03:00:26.876Z,6.12
2019-02-20T03:02:55.354Z,6.12
2019-02-20T03:05:23.783Z,6.00
2019-02-20T03:07:52.237Z,6.17
2019-02-20T03:10:20.659Z,6.12
2019-02-20T03:12:49.115Z,6.12
2019-02-20T03:15:17.537Z,6.14
2019-02-20T03:17:45.984Z,6.14
2019-02-20T03:20:14.437Z,6.22
2019-02-20T03:22:42.877Z,6.19
2019-02-20T03:25:11.287Z,6.10
2019-02-20T03:27:39.728Z,6.09
2019-02-20T03:30:09.094Z,6.09
2019-02-20T03:32:37.544Z,6.08
2019-02-20T03:35:06.931Z,6.02
2019-02-20T03:37:35.389Z,6.01
2019-02-20T03:40:04.853Z,6.00
2019-02-20T03:42:33.317Z,5.93
2019-02-20T03:45:01.747Z,5.93
2019-02-20T03:47:30.196Z,6.08
2019-02-20T03:49:58.626Z,6.08
2019-02-20T03:52:27.083Z,6.15
2019-02-20T03:54:55.503Z,5.99
2019-02-20T03:57:23.953Z,5.99
2019-02-20T03:59:52.388Z,5.93
2019-02-20T04:02:20.842Z,6.12
2019-02-20T04:04:49.263Z,6.13
2019-02-20T04:07:17.715Z,6.30
2019-02-20T04:09:46.133Z,6.30
2019-02-20T04:12:14.663Z,6.39
2019-02-20T04:14:43.163Z,6.37
2019-02-20T04:17:11.599Z,6.39
2019-02-20T04:19:40.027Z,6.31
2019-02-20T04:22:08.481Z,6.30
2019-02-20T04:24:36.909Z,6.23
2019-02-20T04:27:05.357Z,6.13
2019-02-20T04:29:33.785Z,6.13
2019-02-20T04:32:02.239Z,6.13
2019-02-20T04:34:30.665Z,6.12
2019-02-20T04:36:59.115Z,6.12
2019-02-20T04:39:27.549Z,6.26
2019-02-20T04:41:55.984Z,6.26
2019-02-20T04:44:24.411Z,6.15
2019-02-20T04:46:52.834Z,6.12
2019-02-20T04:49:21.289Z,6.12
2019-02-20T04:51:49.712Z,6.14
2019-02-20T04:54:18.176Z,6.14
2019-02-20T04:56:46.608Z,6.07
2019-02-20T04:59:15.061Z,6.04
2019-02-20T05:01:43.485Z,6.04
2019-02-20T05:04:11.965Z,5.95
2019-02-20T05:06:40.391Z,5.95
2019-02-20T05:09:08.834Z,5.82
2019-02-20T05:11:37.255Z,5.82
2019-02-20T05:14:05.713Z,5.91
2019-02-20T05:16:34.138Z,5.98
2019-02-20T05:19:02.573Z,5.98
2019-02-20T05:21:31.004Z,5.80
2019-02-20T05:23:59.460Z,5.81
2019-02-20T05:26:27.900Z,5.81
2019-02-20T05:28:56.336Z,5.75
2019-02-20T05:31:24.773Z,5.85
2019-02-20T05:33:53.231Z,5.89
2019-02-20T05:36:21.739Z,5.86
2019-02-20T05:38:50.198Z,5.73
2019-02-20T05:41:18.641Z,5.72
2019-02-20T05:43:47.083Z,5.69
2019-02-20T05:46:15.505Z,5.69
2019-02-20T05:48:43.960Z,5.73
2019-02-20T05:51:12.372Z,5.77
2019-02-20T05:53:40.831Z,5.75
2019-02-20T05:56:09.254Z,5.78
2019-02-20T05:58:37.717Z,5.78
2019-02-20T06:01:06.136Z,5.78
2019-02-20T06:03:34.593Z,5.23
2019-02-20T06:06:03.052Z,4.95
2019-02-20T06:08:31.479Z,4.95
2019-02-20T06:10:59.910Z,4.76
2019-02-20T06:13:28.369Z,4.69
2019-02-20T06:15:56.799Z,4.62
2019-02-20T06:18:25.248Z,4.62
2019-02-20T06:20:53.685Z,4.59
2019-02-20T06:23:22.132Z,4.53
2019-02-20T06:25:50.567Z,4.53
2019-02-20T06:28:18.989Z,4.59
2019-02-20T06:30:47.445Z,4.59
2019-02-20T06:33:15.877Z,4.58
2019-02-20T06:35:44.326Z,4.57
2019-02-20T06:38:12.768Z,4.65
2019-02-20T06:40:41.218Z,4.73
2019-02-20T06:43:09.646Z,4.73
2019-02-20T06:45:38.103Z,4.73
2019-02-20T06:48:06.536Z,4.86
2019-02-20T06:50:34.982Z,4.86
2019-02-20T06:53:03.407Z,4.94
2019-02-20T06:55:31.941Z,4.99
2019-02-20T06:58:00.358Z,4.99
2019-02-20T07:00:28.814Z,5.15
2019-02-20T07:02:57.240Z,5.21
2019-02-20T07:05:36.343Z,5.21
2019-02-20T07:08:25.404Z,5.22
2019-02-20T07:11:13.643Z,5.29
2019-02-20T07:13:51.376Z,5.28
2019-02-20T07:16:41.950Z,5.28
2019-02-20T07:19:47.877Z,5.34
2019-02-20T07:22:22.333Z,5.40
2019-02-20T07:25:02.857Z,5.57
2019-02-20T07:27:35.520Z,5.57
2019-02-20T07:30:06.687Z,5.64
2019-02-20T07:32:35.109Z,5.75
2019-02-20T07:35:03.828Z,5.75
2019-02-20T07:37:32.261Z,5.75
2019-02-20T07:40:00.706Z,5.71
2019-02-20T07:42:29.125Z,5.71
2019-02-20T07:44:57.586Z,5.75
2019-02-20T07:47:26.014Z,5.76
2019-02-20T07:49:54.477Z,5.86
2019-02-20T07:52:22.900Z,5.90
2019-02-20T07:54:51.333Z,5.98
2019-02-20T07:57:19.790Z,6.06
2019-02-20T07:59:48.209Z,6.09
2019-02-20T08:02:16.661Z,6.14
2019-02-20T08:04:45.089Z,6.17
2019-02-20T08:07:13.550Z,6.20
2019-02-20T08:09:41.968Z,6.19
2019-02-20T08:12:10.485Z,6.19
2019-02-20T08:14:38.914Z,6.17
2019-02-20T08:17:07.524Z,6.22
2019-02-20T08:19:35.942Z,6.21
2019-02-20T08:22:04.469Z,6.18
2019-02-20T08:24:32.909Z,6.20
2019-02-20T08:27:01.341Z,6.20
2019-02-20T08:29:29.803Z,6.26
2019-02-20T08:31:58.303Z,6.32
2019-02-20T08:34:26.742Z,6.41
2019-02-20T08:36:55.267Z,6.53
2019-02-20T08:39:23.691Z,6.58
2019-02-20T08:41:52.141Z,6.61
2019-02-20T08:44:20.571Z,6.61
2019-02-20T08:46:49.025Z,6.61
2019-02-20T08:49:17.444Z,6.60
2019-02-20T08:51:45.898Z,6.55
2019-02-20T08:54:14.320Z,6.55
2019-02-20T08:56:42.784Z,6.58
2019-02-20T08:59:11.213Z,6.71
2019-02-20T09:01:39.674Z,6.80
2019-02-20T09:04:08.101Z,6.84
2019-02-20T09:06:36.554Z,6.84
2019-02-20T09:09:05.855Z,6.94
2019-02-20T09:11:34.275Z,7.09
2019-02-20T09:14:02.731Z,7.23
2019-02-20T09:16:31.161Z,7.35
2019-02-20T09:18:59.621Z,7.56
2019-02-20T09:21:28.056Z,7.59
2019-02-20T09:23:56.520Z,7.66
2019-02-20T09:26:24.938Z,7.72
2019-02-20T09:28:53.395Z,7.82
2019-02-20T09:31:21.823Z,8.00
2019-02-20T09:33:50.274Z,8.14
2019-02-20T09:36:18.693Z,8.31
2019-02-20T09:38:47.149Z,8.36
2019-02-20T09:41:15.563Z,8.34
2019-02-20T09:43:44.959Z,8.28
2019-02-20T09:46:13.385Z,8.18
2019-02-20T09:48:41.833Z,8.04
2019-02-20T09:51:10.251Z,8.01
2019-02-20T09:53:38.709Z,8.11
2019-02-20T09:56:07.136Z,8.18
2019-02-20T09:58:35.585Z,8.33
2019-02-20T10:01:04.004Z,8.48
2019-02-20T10:03:32.466Z,8.60
2019-02-20T10:06:00.886Z,8.76
2019-02-20T10:08:29.336Z,8.79
2019-02-20T10:10:57.777Z,8.77
2019-02-20T10:13:26.196Z,8.85
2019-02-20T10:15:54.644Z,8.77
2019-02-20T10:18:23.079Z,8.67
2019-02-20T10:20:51.529Z,8.69
2019-02-20T10:23:19.963Z,8.72
2019-02-20T10:25:48.407Z,8.76
2019-02-20T10:28:16.836Z,8.81
2019-02-20T10:30:45.298Z,8.80
2019-02-20T10:33:13.729Z,8.91
2019-02-20T10:35:42.187Z,8.94
2019-02-20T10:38:10.620Z,8.99
2019-02-20T10:40:39.077Z,9.00
2019-02-20T10:43:07.577Z,9.03
2019-02-20T10:45:36.033Z,9.02
2019-02-20T10:48:04.455Z,9.09
2019-02-20T10:50:32.911Z,9.07
2019-02-20T10:53:01.346Z,9.08
2019-02-20T10:55:29.795Z,9.16
2019-02-20T10:57:58.216Z,9.16
2019-02-20T11:00:28.384Z,9.07
2019-02-20T11:02:56.804Z,9.07
2019-02-20T11:05:25.329Z,8.98
2019-02-20T11:07:53.744Z,9.05
2019-02-20T11:10:24.034Z,9.15
2019-02-20T11:12:52.723Z,9.17
2019-02-20T11:15:21.185Z,9.26
2019-02-20T11:17:49.609Z,9.36
2019-02-20T11:20:18.078Z,9.39
2019-02-20T11:22:46.561Z,9.55
2019-02-20T11:25:15.007Z,9.73
2019-02-20T11:27:43.507Z,9.74
2019-02-20T11:30:17.862Z,9.69
2019-02-20T11:32:46.282Z,9.70
2019-02-20T11:35:14.732Z,9.64
2019-02-20T11:37:43.147Z,9.76
2019-02-20T11:40:11.673Z,9.82
2019-02-20T11:42:40.097Z,9.86
2019-02-20T11:45:11.403Z,9.95
2019-02-20T11:47:39.824Z,9.92
2019-02-20T11:50:10.087Z,9.94
2019-02-20T11:52:38.788Z,9.86
2019-02-20T11:55:14.864Z,9.90
2019-02-20T11:57:43.462Z,9.83
2019-02-20T12:00:14.469Z,9.79
2019-02-20T12:02:42.991Z,9.79
2019-02-20T12:05:11.488Z,9.83
2019-02-20T12:07:40.008Z,9.90
2019-02-20T12:10:12.601Z,9.86
2019-02-20T12:12:40.922Z,9.95
2019-02-20T12:15:09.499Z,9.90
2019-02-20T12:17:38.015Z,9.89
2019-02-20T12:20:10.418Z,9.88
2019-02-20T12:22:38.896Z,9.91
2019-02-20T12:25:09.052Z,9.93
2019-02-20T12:27:37.580Z,9.93
2019-02-20T12:30:11.138Z,9.95
2019-02-20T12:32:39.672Z,9.96
2019-02-20T12:35:09.662Z,9.96
2019-02-20T12:37:38.170Z,9.97
2019-02-20T12:40:09.022Z,10.07
2019-02-20T12:42:37.479Z,10.12
2019-02-20T12:45:09.874Z,10.10
2019-02-20T12:47:38.331Z,10.09
2019-02-20T12:50:09.602Z,10.10
2019-02-20T12:52:38.086Z,10.07
2019-02-20T12:55:07.740Z,10.05
2019-02-20T12:57:36.269Z,10.22
2019-02-20T13:00:08.110Z,10.31
2019-02-20T13:02:36.573Z,10.33
2019-02-20T13:05:06.612Z,10.42
2019-02-20T13:07:35.083Z,10.37
2019-02-20T13:10:03.511Z,10.33
2019-02-20T13:12:32.035Z,10.43
2019-02-20T13:15:00.467Z,10.37
2019-02-20T13:17:28.924Z,10.27
2019-02-20T13:19:57.367Z,10.20
2019-02-20T13:22:25.824Z,10.16
2019-02-20T13:24:54.256Z,10.14
2019-02-20T13:27:23.215Z,10.17
2019-02-20T13:29:51.724Z,10.18
2019-02-20T13:32:20.183Z,10.23
2019-02-20T13:34:48.693Z,10.25
2019-02-20T13:37:17.158Z,10.26
2019-02-20T13:39:45.573Z,10.13
2019-02-20T13:42:14.102Z,10.05
2019-02-20T13:44:42.538Z,10.05
2019-02-20T13:47:10.990Z,10.13
2019-02-20T13:49:39.416Z,10.25
2019-02-20T13:52:07.940Z,10.27
2019-02-20T13:54:36.393Z,10.42
2019-02-20T13:57:05.851Z,10.41
2019-02-20T13:59:34.565Z,10.45
2019-02-20T14:02:03.000Z,10.40
2019-02-20T14:04:31.466Z,10.37
2019-02-20T14:06:59.930Z,10.30
2019-02-20T14:09:28.432Z,10.24
2019-02-20T14:11:56.925Z,10.27
2019-02-20T14:14:25.374Z,10.36
2019-02-20T14:16:54.078Z,10.43
2019-02-20T14:19:22.533Z,10.54
2019-02-20T14:21:50.967Z,10.65
2019-02-20T14:24:19.417Z,10.78
2019-02-20T14:26:47.846Z,10.88
2019-02-20T14:29:16.304Z,10.96
2019-02-20T14:31:44.736Z,10.91
2019-02-20T14:34:13.475Z,10.92
2019-02-20T14:36:41.968Z,10.78
2019-02-20T14:39:10.747Z,10.72
2019-02-20T14:41:39.167Z,10.63
2019-02-20T14:44:07.624Z,10.65
2019-02-20T14:46:36.367Z,10.59
2019-02-20T14:49:05.169Z,10.47
2019-02-20T14:51:33.632Z,10.39
2019-02-20T14:54:02.094Z,10.34
2019-02-20T14:56:30.597Z,10.36
2019-02-20T14:58:59.056Z,10.30
2019-02-20T15:01:27.483Z,10.25
2019-02-20T15:03:55.935Z,10.18
2019-02-20T15:06:24.748Z,10.06
2019-02-20T15:08:53.197Z,10.04
2019-02-20T15:11:21.616Z,9.92
2019-02-20T15:13:50.141Z,9.79
2019-02-20T15:16:18.565Z,9.72
2019-02-20T15:18:47.013Z,9.65
2019-02-20T15:21:15.442Z,9.55
2019-02-20T15:23:44.343Z,9.48
2019-02-20T15:26:12.843Z,9.29
2019-02-20T15:28:41.301Z,9.13
2019-02-20T15:31:09.727Z,8.96
2019-02-20T15:33:38.195Z,8.84
2019-02-20T15:36:06.681Z,8.79
2019-02-20T15:38:35.136Z,8.73
2019-02-20T15:41:03.846Z,8.75
2019-02-20T15:43:32.273Z,8.83
2019-02-20T15:46:00.723Z,8.85
2019-02-20T15:48:29.150Z,8.81
2019-02-20T15:50:57.644Z,8.77
2019-02-20T15:53:26.103Z,8.76
2019-02-20T15:55:54.558Z,8.77
2019-02-20T15:58:23.063Z,8.76
2019-02-20T16:00:51.516Z,8.65
2019-02-20T16:03:20.005Z,8.57
2019-02-20T16:05:48.502Z,8.50
2019-02-20T16:08:16.972Z,8.43
2019-02-20T16:10:45.423Z,8.32
2019-02-20T16:13:13.847Z,8.25
2019-02-20T16:15:42.303Z,8.24
2019-02-20T16:18:10.723Z,8.20
2019-02-20T16:20:39.180Z,8.20
2019-02-20T16:23:07.607Z,8.13
2019-02-20T16:25:36.063Z,8.10
2019-02-20T16:28:04.495Z,8.08
2019-02-20T16:30:33.388Z,8.01
2019-02-20T16:33:01.827Z,8.02
2019-02-20T16:35:30.347Z,7.97
2019-02-20T16:37:58.767Z,7.94
2019-02-20T16:40:27.222Z,7.88
2019-02-20T16:42:55.642Z,7.82
2019-02-20T16:45:25.134Z,7.79
2019-02-20T16:47:54.112Z,7.90
2019-02-20T16:50:22.623Z,8.09
2019-02-20T16:52:51.044Z,8.28
2019-02-20T16:55:19.864Z,8.18
2019-02-20T16:57:56.255Z,8.31
2019-02-20T17:00:20.658Z,8.14
2019-02-20T17:02:49.425Z,8.14
2019-02-20T17:05:17.874Z,8.15
2019-02-20T17:07:46.367Z,8.10
2019-02-20T17:10:16.624Z,8.11
2019-02-20T17:12:45.119Z,8.05
2019-02-20T17:15:17.818Z,8.08
2019-02-20T17:17:46.315Z,7.99
2019-02-20T17:20:17.866Z,8.01
2019-02-20T17:22:46.617Z,7.93
2019-02-20T17:25:15.377Z,7.92
2019-02-20T17:27:43.804Z,7.91
2019-02-20T17:30:14.611Z,7.98
2019-02-20T17:32:43.026Z,8.01
2019-02-20T17:35:11.717Z,7.99
2019-02-20T17:37:40.247Z,8.06
2019-02-20T17:40:10.314Z,8.01
2019-02-20T17:42:38.834Z,8.01
2019-02-20T17:45:10.662Z,7.99
2019-02-20T17:47:39.108Z,7.97
2019-02-20T17:50:12.928Z,8.02
2019-02-20T17:52:41.384Z,8.01
2019-02-20T17:55:10.641Z,8.04
2019-02-20T17:57:39.091Z,8.01
2019-02-20T18:00:13.000Z,8.06
2019-02-20T18:02:41.523Z,8.11
2019-02-20T18:05:10.005Z,8.17
2019-02-20T18:07:38.466Z,8.12
2019-02-20T18:10:08.726Z,8.14
2019-02-20T18:12:37.249Z,8.05
2019-02-20T18:15:08.777Z,7.98
2019-02-20T18:17:37.231Z,8.10
2019-02-20T18:20:10.458Z,8.18
2019-02-20T18:22:38.992Z,8.04
2019-02-20T18:25:11.660Z,8.06
2019-02-20T18:27:40.120Z,8.05
2019-02-20T18:30:15.946Z,8.03
2019-02-20T18:32:44.474Z,8.08
2019-02-20T18:35:15.594Z,8.12
2019-02-20T18:37:44.060Z,8.09
2019-02-20T18:40:15.388Z,8.10
2019-02-20T18:42:43.966Z,8.12
2019-02-20T18:45:14.145Z,8.14
2019-02-20T18:47:42.667Z,8.21
2019-02-20T18:50:13.389Z,8.20
2019-02-20T18:52:41.837Z,8.18
2019-02-20T18:55:13.987Z,8.26
2019-02-20T18:57:42.414Z,8.22
2019-02-20T19:00:16.555Z,8.22
2019-02-20T19:02:45.001Z,8.11
2019-02-20T19:05:13.675Z,8.06
2019-02-20T19:07:42.116Z,8.09
2019-02-20T19:10:13.936Z,8.20
2019-02-20T19:12:48.385Z,8.15
2019-02-20T19:15:22.678Z,8.15
2019-02-20T19:18:03.202Z,8.09
2019-02-20T19:20:37.628Z,8.10
2019-02-20T19:23:25.722Z,8.07
2019-02-20T19:26:19.365Z,8.11
2019-02-20T19:29:06.120Z,8.15
2019-02-20T19:31:43.322Z,8.13
2019-02-20T19:34:40.274Z,8.17
2019-02-20T19:37:23.180Z,8.14
2019-02-20T19:40:03.443Z,8.16
2019-02-20T19:43:10.013Z,8.26
2019-02-20T19:46:05.431Z,8.30
2019-02-20T19:48:42.713Z,8.17
2019-02-20T19:51:38.037Z,8.18
2019-02-20T19:54:41.913Z,8.13
2019-02-20T19:57:19.028Z,8.13
2019-02-20T19:59:55.987Z,8.11
2019-02-20T20:02:51.788Z,8.13
2019-02-20T20:05:39.675Z,8.17
2019-02-20T20:08:19.487Z,8.17
2019-02-20T20:11:20.132Z,8.13
2019-02-20T20:14:13.145Z,8.12
2019-02-20T20:17:04.261Z,8.18
2019-02-20T20:19:53.887Z,8.23
2019-02-20T20:22:28.329Z,8.09
2019-02-20T20:25:05.631Z,8.17
2019-02-20T20:27:42.928Z,8.17
2019-02-20T20:30:20.080Z,8.17
2019-02-20T20:33:00.502Z,8.11
2019-02-20T20:35:50.081Z,8.13
2019-02-20T20:38:39.508Z,8.13
2019-02-20T20:41:29.351Z,8.10
2019-02-20T20:44:03.539Z,8.08
2019-02-20T20:46:38.092Z,8.08
2019-02-20T20:49:09.822Z,8.09
2019-02-20T20:51:56.569Z,8.08
2019-02-20T20:54:28.196Z,8.09
2019-02-20T20:57:08.595Z,8.02
2019-02-20T20:59:49.030Z,8.00
2019-02-20T21:02:20.957Z,8.02
2019-02-20T21:05:09.134Z,8.01
2019-02-20T21:07:46.532Z,8.02
2019-02-20T21:10:26.955Z,7.98
2019-02-20T21:13:16.680Z,7.95
2019-02-20T21:16:06.022Z,7.94
2019-02-20T21:18:49.499Z,7.91
2019-02-20T21:21:27.124Z,7.96
2019-02-20T21:24:17.161Z,7.96
2019-02-20T21:27:06.856Z,7.96
2019-02-20T21:29:47.414Z,7.91
2019-02-20T21:32:41.872Z,7.95
2019-02-20T21:35:28.425Z,7.96
2019-02-20T21:38:18.122Z,7.90
2019-02-20T21:40:58.500Z,7.89
2019-02-20T21:43:35.685Z,7.89
2019-02-20T21:46:23.999Z,7.91
2019-02-20T21:49:04.371Z,7.91
2019-02-20T21:51:38.560Z,7.89
2019-02-20T21:54:30.734Z,7.90
2019-02-20T21:57:14.454Z,7.97
2019-02-20T21:59:48.719Z,8.01
2019-02-20T22:02:22.243Z,8.05
2019-02-20T22:04:59.845Z,8.02
2019-02-20T22:07:46.721Z,7.99
2019-02-20T22:10:34.858Z,7.95
2019-02-20T22:13:24.833Z,7.91
2019-02-20T22:16:11.292Z,8.01
2019-02-20T22:18:54.532Z,8.00
2019-02-20T22:21:42.734Z,8.03
2019-02-20T22:24:20.036Z,8.03
2019-02-20T22:27:12.562Z,8.09
2019-02-20T22:29:55.867Z,8.05
2019-02-20T22:32:27.495Z,8.02
2019-02-20T22:35:10.407Z,8.01
2019-02-20T22:37:54.276Z,7.96
2019-02-20T22:40:48.345Z,8.01
2019-02-20T22:43:41.034Z,8.00
2019-02-20T22:46:18.395Z,8.00
2019-02-20T22:49:09.767Z,8.06
2019-02-20T22:51:49.687Z,8.13
2019-02-20T22:54:42.803Z,8.14
2019-02-20T22:57:30.694Z,8.14
2019-02-20T23:00:37.457Z,8.15
2019-02-20T23:03:11.979Z,8.17
2019-02-20T23:05:43.582Z,8.16
2019-02-20T23:08:23.822Z,8.17
2019-02-20T23:11:18.349Z,8.17
2019-02-20T23:13:55.746Z,8.19
2019-02-20T23:16:24.165Z,8.23
2019-02-20T23:18:52.627Z,8.27
2019-02-20T23:21:21.048Z,8.14
2019-02-20T23:23:49.510Z,8.14
2019-02-20T23:26:17.939Z,8.18
2019-02-20T23:28:46.393Z,8.14
2019-02-20T23:31:14.821Z,8.14
2019-02-20T23:33:43.308Z,8.19
2019-02-20T23:36:11.704Z,8.16
2019-02-20T23:38:40.162Z,8.12
2019-02-20T23:41:08.587Z,8.18
2019-02-20T23:43:37.104Z,8.22
2019-02-20T23:46:05.600Z,8.17
2019-02-20T23:48:34.056Z,8.14
2019-02-20T23:51:02.475Z,8.12
2019-02-20T23:53:34.853Z,8.20
2019-02-20T23:56:06.808Z,8.23
2019-02-20T23:58:38.097Z,8.12
